sensor_id;sensor_type;location;lat;lon;timestamp;P1;durP1;ratioP1;P2;durP2;ratioP2
57889;SDS011;43707;50.184;18.966;2024-02-28T00:02:01;2.90;;;2.50;;
57889;SDS011;43707;50.184;18.966;2024-02-28T00:04:26;3.30;;;2.10;;
57889;SDS011;43707;50.184;18.966;2024-02-28T00:06:52;2.60;;;2.40;;
57889;SDS011;43707;50.184;18.966;2024-02-28T00:09:17;2.10;;;1.80;;
57889;SDS011;43707;50.184;18.966;2024-02-28T00:11:44;2.80;;;2.50;;
57889;SDS011;43707;50.184;18.966;2024-02-28T00:14:10;2.50;;;2.30;;
57889;SDS011;43707;50.184;18.966;2024-02-28T00:16:36;3.10;;;2.20;;
57889;SDS011;43707;50.184;18.966;2024-02-28T00:19:05;3.50;;;3.20;;
57889;SDS011;43707;50.184;18.966;2024-02-28T00:21:31;2.60;;;2.40;;
57889;SDS011;43707;50.184;18.966;2024-02-28T00:23:56;2.80;;;2.30;;
57889;SDS011;43707;50.184;18.966;2024-02-28T00:26:21;2.90;;;2.70;;
57889;SDS011;43707;50.184;18.966;2024-02-28T00:28:47;2.30;;;1.60;;
57889;SDS011;43707;50.184;18.966;2024-02-28T00:31:12;2.90;;;2.10;;
57889;SDS011;43707;50.184;18.966;2024-02-28T00:33:38;2.60;;;2.30;;
57889;SDS011;43707;50.184;18.966;2024-02-28T00:36:03;3.00;;;2.30;;
57889;SDS011;43707;50.184;18.966;2024-02-28T00:38:29;2.90;;;1.80;;
57889;SDS011;43707;50.184;18.966;2024-02-28T00:40:54;2.30;;;1.90;;
57889;SDS011;43707;50.184;18.966;2024-02-28T00:43:20;2.30;;;2.00;;
57889;SDS011;43707;50.184;18.966;2024-02-28T00:45:45;2.10;;;1.90;;
57889;SDS011;43707;50.184;18.966;2024-02-28T00:48:11;2.20;;;1.90;;
57889;SDS011;43707;50.184;18.966;2024-02-28T00:50:36;2.10;;;1.50;;
57889;SDS011;43707;50.184;18.966;2024-02-28T00:53:02;2.00;;;1.70;;
57889;SDS011;43707;50.184;18.966;2024-02-28T00:55:28;2.20;;;1.90;;
57889;SDS011;43707;50.184;18.966;2024-02-28T00:57:53;3.60;;;2.00;;
57889;SDS011;43707;50.184;18.966;2024-02-28T01:00:18;2.50;;;2.10;;
57889;SDS011;43707;50.184;18.966;2024-02-28T01:02:44;2.20;;;1.70;;
57889;SDS011;43707;50.184;18.966;2024-02-28T01:05:10;2.30;;;2.10;;
57889;SDS011;43707;50.184;18.966;2024-02-28T01:07:35;2.00;;;1.80;;
57889;SDS011;43707;50.184;18.966;2024-02-28T01:10:01;2.20;;;1.90;;
57889;SDS011;43707;50.184;18.966;2024-02-28T01:12:27;2.10;;;1.90;;
57889;SDS011;43707;50.184;18.966;2024-02-28T01:14:53;2.10;;;1.80;;
57889;SDS011;43707;50.184;18.966;2024-02-28T01:17:18;2.70;;;2.30;;
57889;SDS011;43707;50.184;18.966;2024-02-28T01:19:44;2.40;;;2.20;;
57889;SDS011;43707;50.184;18.966;2024-02-28T01:22:09;2.60;;;2.30;;
57889;SDS011;43707;50.184;18.966;2024-02-28T01:24:35;4.20;;;2.10;;
57889;SDS011;43707;50.184;18.966;2024-02-28T01:27:01;3.00;;;2.10;;
57889;SDS011;43707;50.184;18.966;2024-02-28T01:29:28;2.90;;;2.20;;
57889;SDS011;43707;50.184;18.966;2024-02-28T01:31:53;2.60;;;2.30;;
57889;SDS011;43707;50.184;18.966;2024-02-28T01:34:19;2.70;;;2.30;;
57889;SDS011;43707;50.184;18.966;2024-02-28T01:36:44;3.60;;;2.30;;
57889;SDS011;43707;50.184;18.966;2024-02-28T01:39:10;3.60;;;1.80;;
57889;SDS011;43707;50.184;18.966;2024-02-28T01:41:35;2.10;;;1.90;;
57889;SDS011;43707;50.184;18.966;2024-02-28T01:44:01;2.00;;;1.70;;
57889;SDS011;43707;50.184;18.966;2024-02-28T01:46:27;2.60;;;1.90;;
57889;SDS011;43707;50.184;18.966;2024-02-28T01:48:53;3.00;;;2.00;;
57889;SDS011;43707;50.184;18.966;2024-02-28T01:51:21;2.10;;;1.50;;
57889;SDS011;43707;50.184;18.966;2024-02-28T01:53:47;2.50;;;2.00;;
57889;SDS011;43707;50.184;18.966;2024-02-28T01:56:14;3.80;;;1.80;;
57889;SDS011;43707;50.184;18.966;2024-02-28T01:58:42;3.70;;;2.40;;
57889;SDS011;43707;50.184;18.966;2024-02-28T02:01:10;3.00;;;1.90;;
57889;SDS011;43707;50.184;18.966;2024-02-28T02:03:36;2.50;;;2.20;;
57889;SDS011;43707;50.184;18.966;2024-02-28T02:06:02;1.90;;;1.70;;
57889;SDS011;43707;50.184;18.966;2024-02-28T02:08:29;1.90;;;1.70;;
57889;SDS011;43707;50.184;18.966;2024-02-28T02:10:54;2.10;;;1.50;;
57889;SDS011;43707;50.184;18.966;2024-02-28T02:13:20;3.80;;;1.40;;
57889;SDS011;43707;50.184;18.966;2024-02-28T02:15:45;1.90;;;1.70;;
57889;SDS011;43707;50.184;18.966;2024-02-28T02:18:11;6.60;;;2.40;;
57889;SDS011;43707;50.184;18.966;2024-02-28T02:20:38;4.70;;;1.90;;
57889;SDS011;43707;50.184;18.966;2024-02-28T02:23:04;2.10;;;1.90;;
57889;SDS011;43707;50.184;18.966;2024-02-28T02:25:29;5.20;;;1.70;;
57889;SDS011;43707;50.184;18.966;2024-02-28T02:27:55;3.00;;;2.30;;
57889;SDS011;43707;50.184;18.966;2024-02-28T02:30:20;2.00;;;1.80;;
57889;SDS011;43707;50.184;18.966;2024-02-28T02:32:46;2.50;;;1.80;;
57889;SDS011;43707;50.184;18.966;2024-02-28T02:35:11;3.40;;;1.80;;
57889;SDS011;43707;50.184;18.966;2024-02-28T02:37:37;2.20;;;2.00;;
57889;SDS011;43707;50.184;18.966;2024-02-28T02:40:02;4.00;;;1.80;;
57889;SDS011;43707;50.184;18.966;2024-02-28T02:42:28;2.90;;;2.50;;
57889;SDS011;43707;50.184;18.966;2024-02-28T02:44:53;6.60;;;2.20;;
57889;SDS011;43707;50.184;18.966;2024-02-28T02:47:19;3.70;;;2.70;;
57889;SDS011;43707;50.184;18.966;2024-02-28T02:49:45;2.80;;;2.20;;
57889;SDS011;43707;50.184;18.966;2024-02-28T02:52:10;2.70;;;2.30;;
57889;SDS011;43707;50.184;18.966;2024-02-28T02:54:36;3.70;;;2.90;;
57889;SDS011;43707;50.184;18.966;2024-02-28T02:57:02;2.40;;;2.20;;
57889;SDS011;43707;50.184;18.966;2024-02-28T02:59:28;2.50;;;2.30;;
57889;SDS011;43707;50.184;18.966;2024-02-28T03:01:53;5.50;;;2.50;;
57889;SDS011;43707;50.184;18.966;2024-02-28T03:04:19;2.30;;;1.90;;
57889;SDS011;43707;50.184;18.966;2024-02-28T03:06:44;2.60;;;2.20;;
57889;SDS011;43707;50.184;18.966;2024-02-28T03:09:10;2.50;;;2.30;;
57889;SDS011;43707;50.184;18.966;2024-02-28T03:11:35;3.20;;;1.80;;
57889;SDS011;43707;50.184;18.966;2024-02-28T03:14:01;2.60;;;2.20;;
57889;SDS011;43707;50.184;18.966;2024-02-28T03:16:27;2.90;;;2.30;;
57889;SDS011;43707;50.184;18.966;2024-02-28T03:18:54;3.00;;;2.70;;
57889;SDS011;43707;50.184;18.966;2024-02-28T03:21:19;3.10;;;2.60;;
57889;SDS011;43707;50.184;18.966;2024-02-28T03:23:46;3.60;;;2.50;;
57889;SDS011;43707;50.184;18.966;2024-02-28T03:26:11;3.40;;;2.80;;
57889;SDS011;43707;50.184;18.966;2024-02-28T03:28:37;5.60;;;2.70;;
57889;SDS011;43707;50.184;18.966;2024-02-28T03:31:02;2.80;;;2.50;;
57889;SDS011;43707;50.184;18.966;2024-02-28T03:33:28;3.10;;;2.60;;
57889;SDS011;43707;50.184;18.966;2024-02-28T03:35:56;3.20;;;2.50;;
57889;SDS011;43707;50.184;18.966;2024-02-28T03:38:22;2.40;;;2.10;;
57889;SDS011;43707;50.184;18.966;2024-02-28T03:40:47;3.00;;;2.50;;
57889;SDS011;43707;50.184;18.966;2024-02-28T03:43:13;2.80;;;2.40;;
57889;SDS011;43707;50.184;18.966;2024-02-28T03:45:38;2.90;;;2.50;;
57889;SDS011;43707;50.184;18.966;2024-02-28T03:48:04;2.50;;;2.20;;
57889;SDS011;43707;50.184;18.966;2024-02-28T03:50:30;3.10;;;2.30;;
57889;SDS011;43707;50.184;18.966;2024-02-28T03:52:55;2.90;;;2.20;;
57889;SDS011;43707;50.184;18.966;2024-02-28T03:55:21;3.20;;;2.30;;
57889;SDS011;43707;50.184;18.966;2024-02-28T03:57:47;2.70;;;2.10;;
57889;SDS011;43707;50.184;18.966;2024-02-28T04:00:13;2.70;;;2.20;;
57889;SDS011;43707;50.184;18.966;2024-02-28T04:02:39;2.40;;;2.10;;
57889;SDS011;43707;50.184;18.966;2024-02-28T04:05:04;2.50;;;2.30;;
57889;SDS011;43707;50.184;18.966;2024-02-28T04:07:30;2.90;;;2.40;;
57889;SDS011;43707;50.184;18.966;2024-02-28T04:09:56;2.40;;;2.10;;
57889;SDS011;43707;50.184;18.966;2024-02-28T04:12:21;2.40;;;2.20;;
57889;SDS011;43707;50.184;18.966;2024-02-28T04:14:47;2.50;;;2.30;;
57889;SDS011;43707;50.184;18.966;2024-02-28T04:17:12;2.80;;;2.40;;
57889;SDS011;43707;50.184;18.966;2024-02-28T04:19:38;3.50;;;2.20;;
57889;SDS011;43707;50.184;18.966;2024-02-28T04:22:04;2.40;;;2.00;;
57889;SDS011;43707;50.184;18.966;2024-02-28T04:24:30;2.60;;;2.40;;
57889;SDS011;43707;50.184;18.966;2024-02-28T04:26:56;3.30;;;2.80;;
57889;SDS011;43707;50.184;18.966;2024-02-28T04:29:23;2.10;;;1.90;;
57889;SDS011;43707;50.184;18.966;2024-02-28T04:31:49;2.90;;;2.30;;
57889;SDS011;43707;50.184;18.966;2024-02-28T04:34:14;3.70;;;3.10;;
57889;SDS011;43707;50.184;18.966;2024-02-28T04:36:40;2.90;;;2.30;;
57889;SDS011;43707;50.184;18.966;2024-02-28T04:39:05;3.30;;;2.90;;
57889;SDS011;43707;50.184;18.966;2024-02-28T04:41:32;2.60;;;2.30;;
57889;SDS011;43707;50.184;18.966;2024-02-28T04:43:59;3.00;;;2.30;;
57889;SDS011;43707;50.184;18.966;2024-02-28T04:46:24;2.20;;;1.90;;
57889;SDS011;43707;50.184;18.966;2024-02-28T04:48:50;3.60;;;2.70;;
57889;SDS011;43707;50.184;18.966;2024-02-28T04:51:16;3.60;;;2.70;;
57889;SDS011;43707;50.184;18.966;2024-02-28T04:53:44;4.70;;;3.20;;
57889;SDS011;43707;50.184;18.966;2024-02-28T04:56:10;3.40;;;2.70;;
57889;SDS011;43707;50.184;18.966;2024-02-28T04:58:38;5.30;;;3.30;;
57889;SDS011;43707;50.184;18.966;2024-02-28T05:01:04;3.30;;;2.20;;
57889;SDS011;43707;50.184;18.966;2024-02-28T05:03:29;3.20;;;2.30;;
57889;SDS011;43707;50.184;18.966;2024-02-28T05:05:55;3.50;;;2.60;;
57889;SDS011;43707;50.184;18.966;2024-02-28T05:08:20;3.40;;;2.40;;
57889;SDS011;43707;50.184;18.966;2024-02-28T05:10:46;3.60;;;2.80;;
57889;SDS011;43707;50.184;18.966;2024-02-28T05:13:11;3.50;;;2.40;;
57889;SDS011;43707;50.184;18.966;2024-02-28T05:15:37;3.40;;;2.30;;
57889;SDS011;43707;50.184;18.966;2024-02-28T05:18:02;3.10;;;2.10;;
57889;SDS011;43707;50.184;18.966;2024-02-28T05:20:28;3.20;;;2.60;;
57889;SDS011;43707;50.184;18.966;2024-02-28T05:22:53;3.10;;;2.50;;
57889;SDS011;43707;50.184;18.966;2024-02-28T05:25:19;2.90;;;2.40;;
57889;SDS011;43707;50.184;18.966;2024-02-28T05:27:44;2.60;;;2.30;;
57889;SDS011;43707;50.184;18.966;2024-02-28T05:30:10;4.20;;;2.90;;
57889;SDS011;43707;50.184;18.966;2024-02-28T05:32:36;3.20;;;2.60;;
57889;SDS011;43707;50.184;18.966;2024-02-28T05:35:01;2.60;;;2.40;;
57889;SDS011;43707;50.184;18.966;2024-02-28T05:37:27;3.90;;;2.40;;
57889;SDS011;43707;50.184;18.966;2024-02-28T05:39:52;3.80;;;2.80;;
57889;SDS011;43707;50.184;18.966;2024-02-28T05:42:18;4.00;;;3.10;;
57889;SDS011;43707;50.184;18.966;2024-02-28T05:44:47;3.20;;;2.80;;
57889;SDS011;43707;50.184;18.966;2024-02-28T05:47:13;2.90;;;2.30;;
57889;SDS011;43707;50.184;18.966;2024-02-28T05:49:39;3.50;;;3.10;;
57889;SDS011;43707;50.184;18.966;2024-02-28T05:52:04;3.30;;;2.90;;
57889;SDS011;43707;50.184;18.966;2024-02-28T05:54:30;3.20;;;2.80;;
57889;SDS011;43707;50.184;18.966;2024-02-28T05:56:56;3.80;;;2.70;;
57889;SDS011;43707;50.184;18.966;2024-02-28T05:59:21;3.30;;;2.80;;
57889;SDS011;43707;50.184;18.966;2024-02-28T06:01:47;7.10;;;2.70;;
57889;SDS011;43707;50.184;18.966;2024-02-28T06:04:12;3.40;;;2.80;;
57889;SDS011;43707;50.184;18.966;2024-02-28T06:06:38;2.80;;;2.30;;
57889;SDS011;43707;50.184;18.966;2024-02-28T06:09:03;3.30;;;2.70;;
57889;SDS011;43707;50.184;18.966;2024-02-28T06:11:29;3.50;;;2.50;;
57889;SDS011;43707;50.184;18.966;2024-02-28T06:13:56;3.30;;;3.00;;
57889;SDS011;43707;50.184;18.966;2024-02-28T06:16:21;3.20;;;2.80;;
57889;SDS011;43707;50.184;18.966;2024-02-28T06:18:47;3.60;;;3.10;;
57889;SDS011;43707;50.184;18.966;2024-02-28T06:21:13;5.90;;;2.90;;
57889;SDS011;43707;50.184;18.966;2024-02-28T06:23:39;3.70;;;2.70;;
57889;SDS011;43707;50.184;18.966;2024-02-28T06:26:04;3.00;;;2.20;;
57889;SDS011;43707;50.184;18.966;2024-02-28T06:28:30;2.00;;;1.80;;
57889;SDS011;43707;50.184;18.966;2024-02-28T06:30:57;3.40;;;2.30;;
57889;SDS011;43707;50.184;18.966;2024-02-28T06:33:23;3.60;;;2.30;;
57889;SDS011;43707;50.184;18.966;2024-02-28T06:35:48;23.70;;;2.60;;
57889;SDS011;43707;50.184;18.966;2024-02-28T06:38:14;7.20;;;2.00;;
57889;SDS011;43707;50.184;18.966;2024-02-28T06:40:39;8.30;;;2.20;;
57889;SDS011;43707;50.184;18.966;2024-02-28T06:43:05;2.50;;;1.90;;
57889;SDS011;43707;50.184;18.966;2024-02-28T06:45:31;4.60;;;1.40;;
57889;SDS011;43707;50.184;18.966;2024-02-28T06:47:57;2.90;;;1.10;;
57889;SDS011;43707;50.184;18.966;2024-02-28T06:50:23;1.60;;;1.40;;
57889;SDS011;43707;50.184;18.966;2024-02-28T06:52:48;2.00;;;1.00;;
57889;SDS011;43707;50.184;18.966;2024-02-28T06:55:14;4.80;;;1.00;;
57889;SDS011;43707;50.184;18.966;2024-02-28T06:57:40;2.60;;;1.00;;
57889;SDS011;43707;50.184;18.966;2024-02-28T07:00:07;2.70;;;1.30;;
57889;SDS011;43707;50.184;18.966;2024-02-28T07:02:34;2.20;;;2.00;;
57889;SDS011;43707;50.184;18.966;2024-02-28T07:05:01;2.80;;;2.30;;
57889;SDS011;43707;50.184;18.966;2024-02-28T07:07:28;2.70;;;2.20;;
57889;SDS011;43707;50.184;18.966;2024-02-28T07:09:54;2.80;;;2.50;;
57889;SDS011;43707;50.184;18.966;2024-02-28T07:12:19;8.70;;;2.20;;
57889;SDS011;43707;50.184;18.966;2024-02-28T07:14:45;5.40;;;2.30;;
57889;SDS011;43707;50.184;18.966;2024-02-28T07:17:10;2.50;;;2.30;;
57889;SDS011;43707;50.184;18.966;2024-02-28T07:19:36;4.20;;;2.20;;
57889;SDS011;43707;50.184;18.966;2024-02-28T07:22:01;3.30;;;1.60;;
57889;SDS011;43707;50.184;18.966;2024-02-28T07:24:27;2.90;;;2.10;;
57889;SDS011;43707;50.184;18.966;2024-02-28T07:26:53;1.80;;;1.40;;
57889;SDS011;43707;50.184;18.966;2024-02-28T07:29:18;1.50;;;1.20;;
57889;SDS011;43707;50.184;18.966;2024-02-28T07:31:44;1.40;;;1.30;;
57889;SDS011;43707;50.184;18.966;2024-02-28T07:34:10;2.20;;;1.80;;
57889;SDS011;43707;50.184;18.966;2024-02-28T07:36:36;1.40;;;1.20;;
57889;SDS011;43707;50.184;18.966;2024-02-28T07:39:02;1.90;;;1.80;;
57889;SDS011;43707;50.184;18.966;2024-02-28T07:41:28;2.50;;;2.00;;
57889;SDS011;43707;50.184;18.966;2024-02-28T07:43:53;2.10;;;1.90;;
57889;SDS011;43707;50.184;18.966;2024-02-28T07:46:19;1.70;;;1.10;;
57889;SDS011;43707;50.184;18.966;2024-02-28T07:48:44;1.00;;;0.80;;
57889;SDS011;43707;50.184;18.966;2024-02-28T07:51:10;1.20;;;1.10;;
57889;SDS011;43707;50.184;18.966;2024-02-28T07:53:36;2.30;;;2.00;;
57889;SDS011;43707;50.184;18.966;2024-02-28T07:56:02;2.40;;;1.90;;
57889;SDS011;43707;50.184;18.966;2024-02-28T07:58:28;2.20;;;1.90;;
57889;SDS011;43707;50.184;18.966;2024-02-28T08:00:53;1.50;;;1.30;;
57889;SDS011;43707;50.184;18.966;2024-02-28T08:03:19;1.50;;;1.30;;
57889;SDS011;43707;50.184;18.966;2024-02-28T08:05:44;2.00;;;1.70;;
57889;SDS011;43707;50.184;18.966;2024-02-28T08:08:10;1.60;;;1.30;;
57889;SDS011;43707;50.184;18.966;2024-02-28T08:10:36;1.40;;;1.00;;
57889;SDS011;43707;50.184;18.966;2024-02-28T08:13:02;1.20;;;1.10;;
57889;SDS011;43707;50.184;18.966;2024-02-28T08:15:28;1.30;;;1.10;;
57889;SDS011;43707;50.184;18.966;2024-02-28T08:17:54;1.20;;;1.00;;
57889;SDS011;43707;50.184;18.966;2024-02-28T08:20:20;1.20;;;1.10;;
57889;SDS011;43707;50.184;18.966;2024-02-28T08:22:45;2.10;;;1.70;;
57889;SDS011;43707;50.184;18.966;2024-02-28T08:25:11;1.90;;;1.20;;
57889;SDS011;43707;50.184;18.966;2024-02-28T08:27:37;2.10;;;1.50;;
57889;SDS011;43707;50.184;18.966;2024-02-28T08:30:04;1.30;;;1.10;;
57889;SDS011;43707;50.184;18.966;2024-02-28T08:32:31;1.30;;;1.20;;
57889;SDS011;43707;50.184;18.966;2024-02-28T08:34:57;1.40;;;1.10;;
57889;SDS011;43707;50.184;18.966;2024-02-28T08:37:23;1.30;;;1.20;;
57889;SDS011;43707;50.184;18.966;2024-02-28T08:39:50;1.60;;;1.50;;
57889;SDS011;43707;50.184;18.966;2024-02-28T08:42:16;1.20;;;1.10;;
57889;SDS011;43707;50.184;18.966;2024-02-28T08:44:41;1.30;;;1.10;;
57889;SDS011;43707;50.184;18.966;2024-02-28T08:47:07;1.40;;;1.30;;
57889;SDS011;43707;50.184;18.966;2024-02-28T08:49:34;2.00;;;1.60;;
57889;SDS011;43707;50.184;18.966;2024-02-28T08:52:01;1.40;;;1.30;;
57889;SDS011;43707;50.184;18.966;2024-02-28T08:54:27;1.30;;;1.20;;
57889;SDS011;43707;50.184;18.966;2024-02-28T08:56:52;1.60;;;1.20;;
57889;SDS011;43707;50.184;18.966;2024-02-28T08:59:18;1.40;;;1.30;;
57889;SDS011;43707;50.184;18.966;2024-02-28T09:01:43;1.30;;;1.20;;
57889;SDS011;43707;50.184;18.966;2024-02-28T09:04:10;1.20;;;1.10;;
57889;SDS011;43707;50.184;18.966;2024-02-28T09:06:35;1.20;;;1.10;;
57889;SDS011;43707;50.184;18.966;2024-02-28T09:09:01;1.30;;;1.10;;
57889;SDS011;43707;50.184;18.966;2024-02-28T09:11:26;1.40;;;1.20;;
57889;SDS011;43707;50.184;18.966;2024-02-28T09:13:52;2.40;;;1.60;;
57889;SDS011;43707;50.184;18.966;2024-02-28T09:16:18;1.30;;;1.10;;
57889;SDS011;43707;50.184;18.966;2024-02-28T09:18:44;1.70;;;1.40;;
57889;SDS011;43707;50.184;18.966;2024-02-28T09:21:09;1.30;;;1.20;;
57889;SDS011;43707;50.184;18.966;2024-02-28T09:23:35;2.10;;;1.90;;
57889;SDS011;43707;50.184;18.966;2024-02-28T09:26:03;3.10;;;2.40;;
57889;SDS011;43707;50.184;18.966;2024-02-28T09:28:29;10.20;;;2.70;;
57889;SDS011;43707;50.184;18.966;2024-02-28T09:30:55;2.60;;;2.10;;
57889;SDS011;43707;50.184;18.966;2024-02-28T09:33:21;2.00;;;1.50;;
57889;SDS011;43707;50.184;18.966;2024-02-28T09:35:46;5.20;;;2.10;;
57889;SDS011;43707;50.184;18.966;2024-02-28T09:38:12;2.60;;;2.40;;
57889;SDS011;43707;50.184;18.966;2024-02-28T09:40:37;3.40;;;2.60;;
57889;SDS011;43707;50.184;18.966;2024-02-28T09:43:03;3.30;;;3.00;;
57889;SDS011;43707;50.184;18.966;2024-02-28T09:45:30;2.80;;;1.90;;
57889;SDS011;43707;50.184;18.966;2024-02-28T09:48:00;1.80;;;1.60;;
57889;SDS011;43707;50.184;18.966;2024-02-28T09:50:26;3.10;;;1.80;;
57889;SDS011;43707;50.184;18.966;2024-02-28T09:52:52;3.20;;;2.90;;
57889;SDS011;43707;50.184;18.966;2024-02-28T09:55:19;2.60;;;2.20;;
57889;SDS011;43707;50.184;18.966;2024-02-28T09:57:47;2.60;;;2.40;;
57889;SDS011;43707;50.184;18.966;2024-02-28T10:00:14;2.60;;;2.20;;
57889;SDS011;43707;50.184;18.966;2024-02-28T10:02:40;2.40;;;1.80;;
57889;SDS011;43707;50.184;18.966;2024-02-28T10:05:08;2.00;;;1.70;;
57889;SDS011;43707;50.184;18.966;2024-02-28T10:07:34;2.10;;;1.90;;
57889;SDS011;43707;50.184;18.966;2024-02-28T10:10:00;2.20;;;1.70;;
57889;SDS011;43707;50.184;18.966;2024-02-28T10:12:26;2.60;;;2.20;;
57889;SDS011;43707;50.184;18.966;2024-02-28T10:14:51;3.30;;;2.50;;
57889;SDS011;43707;50.184;18.966;2024-02-28T10:17:17;3.40;;;2.90;;
57889;SDS011;43707;50.184;18.966;2024-02-28T10:19:42;3.20;;;2.30;;
57889;SDS011;43707;50.184;18.966;2024-02-28T10:22:07;3.30;;;2.60;;
57889;SDS011;43707;50.184;18.966;2024-02-28T10:24:33;1.80;;;1.60;;
57889;SDS011;43707;50.184;18.966;2024-02-28T10:27:00;3.00;;;2.30;;
57889;SDS011;43707;50.184;18.966;2024-02-28T10:29:26;2.90;;;2.60;;
57889;SDS011;43707;50.184;18.966;2024-02-28T10:31:56;2.60;;;2.30;;
57889;SDS011;43707;50.184;18.966;2024-02-28T10:34:22;2.70;;;2.40;;
57889;SDS011;43707;50.184;18.966;2024-02-28T10:36:49;4.00;;;3.10;;
57889;SDS011;43707;50.184;18.966;2024-02-28T10:39:15;3.20;;;2.60;;
57889;SDS011;43707;50.184;18.966;2024-02-28T10:41:41;3.40;;;2.80;;
57889;SDS011;43707;50.184;18.966;2024-02-28T10:44:08;3.80;;;3.20;;
57889;SDS011;43707;50.184;18.966;2024-02-28T10:46:37;4.30;;;2.90;;
57889;SDS011;43707;50.184;18.966;2024-02-28T10:49:03;3.30;;;3.00;;
57889;SDS011;43707;50.184;18.966;2024-02-28T10:51:29;3.50;;;3.00;;
57889;SDS011;43707;50.184;18.966;2024-02-28T10:56:44;3.60;;;2.90;;
57889;SDS011;43707;50.184;18.966;2024-02-28T10:59:10;3.20;;;2.80;;
57889;SDS011;43707;50.184;18.966;2024-02-28T11:01:38;4.10;;;3.00;;
57889;SDS011;43707;50.184;18.966;2024-02-28T11:04:09;2.50;;;2.30;;
57889;SDS011;43707;50.184;18.966;2024-02-28T11:06:46;2.50;;;2.30;;
57889;SDS011;43707;50.184;18.966;2024-02-28T11:09:18;3.90;;;3.20;;
57889;SDS011;43707;50.184;18.966;2024-02-28T11:11:48;3.50;;;2.80;;
57889;SDS011;43707;50.184;18.966;2024-02-28T11:14:15;3.10;;;2.80;;
57889;SDS011;43707;50.184;18.966;2024-02-28T11:16:41;4.00;;;3.00;;
57889;SDS011;43707;50.184;18.966;2024-02-28T11:19:21;5.40;;;4.30;;
57889;SDS011;43707;50.184;18.966;2024-02-28T11:21:56;3.80;;;2.50;;
57889;SDS011;43707;50.184;18.966;2024-02-28T11:24:28;4.50;;;3.20;;
57889;SDS011;43707;50.184;18.966;2024-02-28T11:26:56;3.90;;;3.50;;
57889;SDS011;43707;50.184;18.966;2024-02-28T11:29:22;3.80;;;3.40;;
57889;SDS011;43707;50.184;18.966;2024-02-28T11:31:49;3.90;;;3.50;;
57889;SDS011;43707;50.184;18.966;2024-02-28T11:34:15;3.40;;;3.10;;
57889;SDS011;43707;50.184;18.966;2024-02-28T11:36:40;4.00;;;3.30;;
57889;SDS011;43707;50.184;18.966;2024-02-28T11:39:06;4.30;;;3.00;;
57889;SDS011;43707;50.184;18.966;2024-02-28T11:41:31;3.50;;;3.20;;
57889;SDS011;43707;50.184;18.966;2024-02-28T11:43:57;3.70;;;3.20;;
57889;SDS011;43707;50.184;18.966;2024-02-28T11:46:23;4.30;;;3.10;;
57889;SDS011;43707;50.184;18.966;2024-02-28T11:48:49;4.50;;;3.20;;
57889;SDS011;43707;50.184;18.966;2024-02-28T11:51:14;3.00;;;2.00;;
57889;SDS011;43707;50.184;18.966;2024-02-28T11:53:40;2.30;;;1.80;;
57889;SDS011;43707;50.184;18.966;2024-02-28T11:56:06;2.90;;;2.00;;
57889;SDS011;43707;50.184;18.966;2024-02-28T11:58:33;2.30;;;2.10;;
57889;SDS011;43707;50.184;18.966;2024-02-28T12:00:59;2.50;;;2.20;;
57889;SDS011;43707;50.184;18.966;2024-02-28T12:03:25;2.60;;;2.30;;
57889;SDS011;43707;50.184;18.966;2024-02-28T12:05:52;6.10;;;1.90;;
57889;SDS011;43707;50.184;18.966;2024-02-28T12:08:19;2.80;;;1.90;;
57889;SDS011;43707;50.184;18.966;2024-02-28T12:10:47;1.90;;;1.50;;
57889;SDS011;43707;50.184;18.966;2024-02-28T12:13:19;2.70;;;1.90;;
57889;SDS011;43707;50.184;18.966;2024-02-28T12:15:45;3.00;;;2.40;;
57889;SDS011;43707;50.184;18.966;2024-02-28T12:18:12;2.60;;;2.20;;
57889;SDS011;43707;50.184;18.966;2024-02-28T12:20:40;2.30;;;1.90;;
57889;SDS011;43707;50.184;18.966;2024-02-28T12:23:05;3.60;;;2.80;;
57889;SDS011;43707;50.184;18.966;2024-02-28T12:25:33;4.20;;;2.90;;
57889;SDS011;43707;50.184;18.966;2024-02-28T12:28:00;3.30;;;2.90;;
57889;SDS011;43707;50.184;18.966;2024-02-28T12:30:26;4.40;;;3.60;;
57889;SDS011;43707;50.184;18.966;2024-02-28T12:32:51;2.90;;;2.60;;
57889;SDS011;43707;50.184;18.966;2024-02-28T12:35:17;3.10;;;2.80;;
57889;SDS011;43707;50.184;18.966;2024-02-28T12:37:42;4.70;;;3.40;;
57889;SDS011;43707;50.184;18.966;2024-02-28T12:40:08;3.60;;;3.10;;
57889;SDS011;43707;50.184;18.966;2024-02-28T12:42:33;2.50;;;2.00;;
57889;SDS011;43707;50.184;18.966;2024-02-28T12:44:59;3.30;;;3.00;;
57889;SDS011;43707;50.184;18.966;2024-02-28T12:47:25;3.90;;;3.10;;
57889;SDS011;43707;50.184;18.966;2024-02-28T12:49:50;3.70;;;3.20;;
57889;SDS011;43707;50.184;18.966;2024-02-28T12:52:16;3.30;;;2.70;;
57889;SDS011;43707;50.184;18.966;2024-02-28T12:54:42;2.30;;;2.00;;
57889;SDS011;43707;50.184;18.966;2024-02-28T12:57:08;2.80;;;1.90;;
57889;SDS011;43707;50.184;18.966;2024-02-28T12:59:34;2.90;;;2.60;;
57889;SDS011;43707;50.184;18.966;2024-02-28T13:01:59;3.70;;;2.60;;
57889;SDS011;43707;50.184;18.966;2024-02-28T13:04:25;3.60;;;2.90;;
57889;SDS011;43707;50.184;18.966;2024-02-28T13:06:55;2.80;;;2.50;;
57889;SDS011;43707;50.184;18.966;2024-02-28T13:09:20;4.10;;;2.90;;
57889;SDS011;43707;50.184;18.966;2024-02-28T13:11:47;3.50;;;2.90;;
57889;SDS011;43707;50.184;18.966;2024-02-28T13:14:13;2.70;;;2.50;;
57889;SDS011;43707;50.184;18.966;2024-02-28T13:16:38;3.10;;;2.60;;
57889;SDS011;43707;50.184;18.966;2024-02-28T13:19:04;2.30;;;2.10;;
57889;SDS011;43707;50.184;18.966;2024-02-28T13:21:30;3.30;;;2.60;;
57889;SDS011;43707;50.184;18.966;2024-02-28T13:23:58;3.40;;;2.80;;
57889;SDS011;43707;50.184;18.966;2024-02-28T13:26:24;2.80;;;2.30;;
57889;SDS011;43707;50.184;18.966;2024-02-28T13:28:49;3.20;;;2.40;;
57889;SDS011;43707;50.184;18.966;2024-02-28T13:31:15;2.60;;;2.30;;
57889;SDS011;43707;50.184;18.966;2024-02-28T13:33:41;2.70;;;2.50;;
57889;SDS011;43707;50.184;18.966;2024-02-28T13:36:07;2.70;;;2.20;;
57889;SDS011;43707;50.184;18.966;2024-02-28T13:38:32;2.30;;;2.10;;
57889;SDS011;43707;50.184;18.966;2024-02-28T13:40:58;2.80;;;2.20;;
57889;SDS011;43707;50.184;18.966;2024-02-28T13:43:25;2.80;;;2.40;;
57889;SDS011;43707;50.184;18.966;2024-02-28T13:45:50;2.60;;;2.40;;
57889;SDS011;43707;50.184;18.966;2024-02-28T13:48:25;3.20;;;2.30;;
57889;SDS011;43707;50.184;18.966;2024-02-28T13:50:52;3.90;;;3.50;;
57889;SDS011;43707;50.184;18.966;2024-02-28T13:53:17;3.60;;;2.80;;
57889;SDS011;43707;50.184;18.966;2024-02-28T13:55:43;2.70;;;2.50;;
57889;SDS011;43707;50.184;18.966;2024-02-28T13:58:13;3.90;;;2.50;;
57889;SDS011;43707;50.184;18.966;2024-02-28T14:00:43;2.60;;;2.30;;
57889;SDS011;43707;50.184;18.966;2024-02-28T14:03:12;3.10;;;2.80;;
57889;SDS011;43707;50.184;18.966;2024-02-28T14:05:37;3.90;;;3.00;;
57889;SDS011;43707;50.184;18.966;2024-02-28T14:08:03;3.70;;;3.40;;
57889;SDS011;43707;50.184;18.966;2024-02-28T14:10:29;3.60;;;3.30;;
57889;SDS011;43707;50.184;18.966;2024-02-28T14:12:55;3.20;;;2.50;;
57889;SDS011;43707;50.184;18.966;2024-02-28T14:15:21;4.00;;;2.90;;
57889;SDS011;43707;50.184;18.966;2024-02-28T14:17:48;2.80;;;2.20;;
57889;SDS011;43707;50.184;18.966;2024-02-28T14:20:13;3.90;;;2.90;;
57889;SDS011;43707;50.184;18.966;2024-02-28T14:22:39;3.20;;;2.90;;
57889;SDS011;43707;50.184;18.966;2024-02-28T14:25:14;6.70;;;3.50;;
57889;SDS011;43707;50.184;18.966;2024-02-28T14:27:44;3.40;;;2.30;;
57889;SDS011;43707;50.184;18.966;2024-02-28T14:30:10;7.10;;;2.10;;